createdAt,value
2022-11-28T00:01:30.719Z,4.63
2022-11-28T00:03:58.643Z,4.93
2022-11-28T00:06:27.263Z,5.20
2022-11-28T00:08:56.137Z,5.20
2022-11-28T00:11:25.444Z,5.03
2022-11-28T00:13:53.548Z,4.83
2022-11-28T00:16:23.132Z,4.93
2022-11-28T00:18:52.179Z,4.93
2022-11-28T00:21:20.964Z,4.97
2022-11-28T00:23:49.928Z,4.87
2022-11-28T00:26:20.634Z,5.20
2022-11-28T00:28:50.295Z,5.63
2022-11-28T00:31:20.479Z,5.23
2022-11-28T00:33:48.728Z,5.20
2022-11-28T00:36:16.865Z,4.60
2022-11-28T00:38:45.233Z,4.87
2022-11-28T00:41:15.129Z,4.60
2022-11-28T00:43:43.763Z,5.13
2022-11-28T00:46:14.543Z,4.87
2022-11-28T00:48:42.787Z,4.73
2022-11-28T00:51:13.473Z,4.80
2022-11-28T00:53:42.836Z,4.67
2022-11-28T00:56:12.257Z,5.30
2022-11-28T00:58:41.157Z,5.10
2022-11-28T01:01:09.824Z,4.90
2022-11-28T01:03:39.836Z,5.27
2022-11-28T01:06:09.255Z,5.20
2022-11-28T01:08:38.078Z,5.23
2022-11-28T01:11:12.210Z,4.90
2022-11-28T01:13:40.488Z,5.00
2022-11-28T01:16:09.575Z,4.70
2022-11-28T01:18:38.999Z,4.63
2022-11-28T01:21:07.738Z,4.87
2022-11-28T01:23:35.894Z,4.90
2022-11-28T01:26:04.823Z,5.07
2022-11-28T01:28:32.707Z,4.27
2022-11-28T01:31:05.594Z,4.47
2022-11-28T01:33:33.532Z,4.77
2022-11-28T01:36:03.119Z,4.37
2022-11-28T01:38:31.537Z,4.53
2022-11-28T01:40:59.367Z,4.30
2022-11-28T01:43:27.305Z,5.03
2022-11-28T01:45:55.431Z,4.60
2022-11-28T01:48:27.176Z,4.53
2022-11-28T01:50:59.474Z,4.80
2022-11-28T01:53:31.637Z,4.67
2022-11-28T01:56:03.235Z,4.33
2022-11-28T01:58:33.777Z,4.50
2022-11-28T02:01:01.872Z,4.97
2022-11-28T02:03:34.570Z,4.70
2022-11-28T02:06:02.899Z,4.60
2022-11-28T02:08:35.865Z,4.40
2022-11-28T02:11:20.409Z,4.33
2022-11-28T02:13:59.376Z,4.70
2022-11-28T02:16:44.474Z,4.50
2022-11-28T02:19:53.182Z,4.77
2022-11-28T02:22:25.819Z,4.13
2022-11-28T02:25:11.289Z,4.20
2022-11-28T02:28:02.258Z,4.63
2022-11-28T02:30:37.651Z,4.40
2022-11-28T02:33:16.102Z,4.20
2022-11-28T02:36:00.205Z,4.10
2022-11-28T02:38:42.988Z,3.70
2022-11-28T02:41:20.246Z,3.83
2022-11-28T02:43:56.958Z,3.83
2022-11-28T02:46:31.165Z,3.43
2022-11-28T02:49:06.091Z,3.50
2022-11-28T02:51:38.906Z,3.40
2022-11-28T02:54:11.205Z,3.40
2022-11-28T02:56:39.248Z,3.40
2022-11-28T02:59:46.653Z,3.23
2022-11-28T03:02:18.484Z,3.20
2022-11-28T03:04:53.257Z,2.67
2022-11-28T03:07:35.026Z,3.10
2022-11-28T03:10:15.550Z,2.83
2022-11-28T03:12:54.161Z,3.07
2022-11-28T03:15:27.955Z,2.80
2022-11-28T03:18:03.060Z,2.80
2022-11-28T03:20:42.872Z,2.80
2022-11-28T03:23:17.074Z,3.10
2022-11-28T03:25:59.041Z,2.70
2022-11-28T03:28:31.871Z,2.70
2022-11-28T03:31:03.883Z,2.63
2022-11-28T03:33:35.790Z,2.67
2022-11-28T03:36:08.451Z,2.47
2022-11-28T03:38:39.433Z,2.70
2022-11-28T03:41:10.571Z,2.50
2022-11-28T03:43:43.900Z,2.70
2022-11-28T03:46:17.138Z,3.07
2022-11-28T03:48:48.424Z,2.60
2022-11-28T03:51:21.731Z,2.73
2022-11-28T03:53:55.109Z,2.63
2022-11-28T03:56:28.035Z,3.00
2022-11-28T03:59:01.429Z,2.90
2022-11-28T04:01:33.759Z,2.80
2022-11-28T04:04:12.200Z,3.10
2022-11-28T04:06:51.904Z,3.10
2022-11-28T04:09:24.445Z,2.90
2022-11-28T04:11:56.382Z,3.00
2022-11-28T04:14:29.498Z,4.07
2022-11-28T04:17:04.445Z,3.33
2022-11-28T04:19:37.875Z,3.90
2022-11-28T04:22:14.099Z,3.50
2022-11-28T04:24:47.050Z,4.07
2022-11-28T04:27:19.212Z,4.00
2022-11-28T04:29:49.586Z,4.03
2022-11-28T04:32:20.283Z,4.03
2022-11-28T04:34:52.311Z,4.27
2022-11-28T04:37:23.812Z,4.00
2022-11-28T04:39:53.123Z,4.37
2022-11-28T04:42:24.406Z,4.57
2022-11-28T04:44:56.264Z,4.60
2022-11-28T04:47:24.988Z,4.73
2022-11-28T04:49:54.229Z,5.47
2022-11-28T04:52:30.651Z,5.20
2022-11-28T04:55:04.564Z,5.50
2022-11-28T04:57:37.239Z,6.10
2022-11-28T05:00:08.913Z,5.63
2022-11-28T05:02:38.633Z,6.37
2022-11-28T05:05:10.476Z,5.87
2022-11-28T05:07:39.748Z,6.60
2022-11-28T05:10:08.959Z,6.90
2022-11-28T05:12:37.001Z,6.87
2022-11-28T05:15:05.933Z,6.50
2022-11-28T05:17:37.717Z,7.23
2022-11-28T05:20:09.472Z,7.17
2022-11-28T05:22:38.727Z,7.50
2022-11-28T05:25:08.056Z,7.73
2022-11-28T05:27:35.989Z,7.63
2022-11-28T05:30:04.203Z,8.00
2022-11-28T05:32:32.369Z,8.07
2022-11-28T05:35:00.471Z,8.43
2022-11-28T05:37:28.425Z,8.70
2022-11-28T05:39:57.691Z,8.37
2022-11-28T05:42:26.222Z,8.60
2022-11-28T05:44:54.168Z,8.37
2022-11-28T05:47:23.806Z,8.63
2022-11-28T05:49:51.982Z,8.93
2022-11-28T05:52:19.953Z,9.60
2022-11-28T05:54:47.796Z,9.43
2022-11-28T05:57:16.979Z,9.30
2022-11-28T05:59:45.295Z,8.80
2022-11-28T06:02:13.428Z,8.90
2022-11-28T06:04:41.992Z,9.43
2022-11-28T06:07:10.087Z,9.43
2022-11-28T06:09:37.998Z,11.37
2022-11-28T06:12:06.096Z,9.23
2022-11-28T06:14:35.479Z,9.30
2022-11-28T06:17:03.357Z,8.97
2022-11-28T06:19:31.308Z,8.23
2022-11-28T06:21:59.211Z,9.10
2022-11-28T06:24:27.285Z,8.77
2022-11-28T06:26:55.222Z,8.60
2022-11-28T06:29:23.153Z,8.47
2022-11-28T06:31:52.548Z,8.23
2022-11-28T06:34:20.423Z,7.93
2022-11-28T06:36:48.296Z,8.70
2022-11-28T06:39:17.870Z,8.93
2022-11-28T06:41:46.131Z,8.20
2022-11-28T06:44:15.257Z,8.63
2022-11-28T06:46:43.864Z,8.40
2022-11-28T06:49:13.902Z,8.33
2022-11-28T06:51:42.404Z,8.57
2022-11-28T06:54:10.455Z,7.70
2022-11-28T06:56:38.337Z,8.10
2022-11-28T06:59:06.249Z,8.00
2022-11-28T07:01:35.216Z,7.73
2022-11-28T07:04:03.161Z,8.40
2022-11-28T07:06:32.377Z,7.73
2022-11-28T07:09:00.489Z,7.70
2022-11-28T07:11:29.896Z,7.23
2022-11-28T07:14:01.514Z,7.40
2022-11-28T07:16:32.005Z,7.37
2022-11-28T07:19:01.210Z,7.73
2022-11-28T07:21:29.836Z,7.67
2022-11-28T07:23:59.705Z,7.17
2022-11-28T07:26:27.749Z,6.40
2022-11-28T07:28:58.143Z,7.40
2022-11-28T07:31:28.753Z,6.90
2022-11-28T07:33:56.677Z,7.40
2022-11-28T07:36:26.295Z,7.33
2022-11-28T07:38:56.526Z,7.03
2022-11-28T07:41:27.227Z,7.90
2022-11-28T07:43:57.499Z,7.07
2022-11-28T07:46:26.401Z,7.57
2022-11-28T07:48:54.673Z,7.93
2022-11-28T07:51:24.441Z,8.53
2022-11-28T07:53:53.007Z,8.10
2022-11-28T07:56:22.317Z,8.57
2022-11-28T07:58:51.961Z,8.33
2022-11-28T08:01:21.807Z,8.30
2022-11-28T08:03:50.454Z,8.23
2022-11-28T08:06:20.423Z,8.67
2022-11-28T08:08:48.688Z,7.90
2022-11-28T08:11:18.725Z,8.00
2022-11-28T08:13:47.108Z,8.43
2022-11-28T08:16:18.959Z,7.97
2022-11-28T08:18:47.710Z,8.60
2022-11-28T08:21:18.070Z,8.83
2022-11-28T08:23:46.331Z,8.00
2022-11-28T08:26:16.716Z,8.60
2022-11-28T08:28:45.365Z,8.67
2022-11-28T08:31:15.207Z,9.40
2022-11-28T08:33:45.850Z,9.30
2022-11-28T08:36:15.752Z,8.90
2022-11-28T08:39:02.972Z,8.53
2022-11-28T08:41:34.077Z,8.60
2022-11-28T08:44:01.908Z,8.73
2022-11-28T08:46:29.865Z,9.67
2022-11-28T08:49:04.176Z,9.53
2022-11-28T08:51:32.777Z,9.20
2022-11-28T08:54:00.801Z,9.17
2022-11-28T08:56:29.386Z,9.73
2022-11-28T08:58:57.331Z,9.63
2022-11-28T09:01:27.442Z,9.93
2022-11-28T09:03:56.901Z,9.97
2022-11-28T09:06:26.305Z,9.97
2022-11-28T09:08:54.648Z,10.07
2022-11-28T09:11:23.685Z,10.20
2022-11-28T09:13:51.638Z,11.17
2022-11-28T09:16:19.595Z,11.40
2022-11-28T09:18:47.576Z,10.83
2022-11-28T09:21:16.673Z,11.37
2022-11-28T09:23:46.255Z,11.70
2022-11-28T09:26:16.398Z,11.33
2022-11-28T09:28:44.866Z,11.17
2022-11-28T09:31:13.519Z,12.30
2022-11-28T09:33:41.909Z,12.90
2022-11-28T09:36:11.757Z,12.27
2022-11-28T09:38:40.076Z,11.67
2022-11-28T09:41:40.608Z,11.07
2022-11-28T09:44:15.530Z,11.60
2022-11-28T09:46:45.216Z,11.70
2022-11-28T09:49:23.291Z,12.50
2022-11-28T09:51:57.590Z,12.87
2022-11-28T09:54:37.282Z,13.20
2022-11-28T09:57:13.840Z,12.40
2022-11-28T09:59:42.177Z,13.50
2022-11-28T10:02:24.428Z,13.37
2022-11-28T10:05:02.629Z,14.00
2022-11-28T10:07:39.028Z,13.13
2022-11-28T10:10:18.164Z,12.77
2022-11-28T10:12:57.936Z,13.53
2022-11-28T10:15:42.618Z,14.67
2022-11-28T10:18:21.903Z,13.27
2022-11-28T10:20:55.221Z,13.37
2022-11-28T10:23:27.748Z,13.60
2022-11-28T10:25:58.357Z,13.57
2022-11-28T10:28:31.624Z,14.13
2022-11-28T10:31:05.365Z,13.90
2022-11-28T10:33:38.082Z,14.43
2022-11-28T10:36:07.359Z,13.67
2022-11-28T10:38:37.127Z,14.90
2022-11-28T10:41:13.714Z,15.33
2022-11-28T10:43:48.516Z,14.30
2022-11-28T10:46:44.399Z,14.63
2022-11-28T10:49:26.477Z,14.90
2022-11-28T10:52:04.322Z,14.63
2022-11-28T10:54:58.568Z,14.67
2022-11-28T10:57:32.569Z,15.63
2022-11-28T11:00:06.610Z,15.10
2022-11-28T11:02:39.504Z,15.73
2022-11-28T11:05:13.063Z,15.33
2022-11-28T11:07:45.325Z,15.20
2022-11-28T11:10:18.096Z,16.17
2022-11-28T11:12:47.068Z,14.60
2022-11-28T11:15:25.525Z,15.40
2022-11-28T11:17:53.428Z,16.03
2022-11-28T11:20:30.511Z,15.53
2022-11-28T11:22:59.787Z,16.00
2022-11-28T11:25:29.671Z,15.83
2022-11-28T11:28:00.831Z,15.77
2022-11-28T11:30:32.057Z,15.97
2022-11-28T11:33:01.979Z,15.90
2022-11-28T11:35:32.764Z,16.50
2022-11-28T11:38:17.954Z,17.23
2022-11-28T11:40:46.216Z,16.27
2022-11-28T11:43:30.675Z,16.60
2022-11-28T11:46:11.688Z,16.57
2022-11-28T11:48:41.284Z,16.77
2022-11-28T11:51:22.575Z,18.03
2022-11-28T11:54:00.404Z,17.60
2022-11-28T11:56:30.982Z,17.60
2022-11-28T11:59:03.356Z,18.70
2022-11-28T12:01:34.631Z,18.50
2022-11-28T12:04:23.808Z,18.47
2022-11-28T12:06:56.568Z,19.07
2022-11-28T12:09:29.661Z,18.70
2022-11-28T12:12:01.426Z,18.43
2022-11-28T12:14:32.430Z,17.93
2022-11-28T12:20:29.986Z,17.60
2022-11-28T12:23:11.855Z,18.37
2022-11-28T12:25:48.211Z,19.57
2022-11-28T12:28:28.197Z,18.10
2022-11-28T12:31:08.366Z,18.77
2022-11-28T12:33:48.531Z,19.03
2022-11-28T12:36:25.557Z,18.17
2022-11-28T12:39:17.614Z,18.63
2022-11-28T12:42:05.926Z,18.37
2022-11-28T12:44:44.765Z,17.80
2022-11-28T12:47:20.140Z,18.40
2022-11-28T12:49:58.269Z,17.93
2022-11-28T12:52:34.859Z,19.30
2022-11-28T12:55:23.084Z,19.13
2022-11-28T12:57:58.762Z,17.37
2022-11-28T13:00:29.752Z,18.50
2022-11-28T13:03:11.113Z,17.80
2022-11-28T13:05:54.194Z,18.23
2022-11-28T13:08:48.140Z,17.67
2022-11-28T13:11:34.169Z,17.87
2022-11-28T13:14:11.171Z,19.57
2022-11-28T13:16:47.607Z,18.37
2022-11-28T13:19:28.501Z,19.17
2022-11-28T13:22:06.313Z,17.93
2022-11-28T13:24:40.320Z,18.90
2022-11-28T13:27:14.535Z,18.97
2022-11-28T13:29:48.426Z,18.83
2022-11-28T13:32:22.564Z,18.97
2022-11-28T13:34:51.451Z,18.00
2022-11-28T13:40:24.542Z,18.40
2022-11-28T13:43:06.537Z,17.83
2022-11-28T13:45:39.270Z,17.93
2022-11-28T13:51:31.846Z,17.87
2022-11-28T13:54:39.863Z,16.80
2022-11-28T13:57:19.435Z,16.93
2022-11-28T13:59:52.748Z,17.50
2022-11-28T14:02:26.629Z,17.57
2022-11-28T14:04:54.708Z,17.80
2022-11-28T14:07:28.721Z,17.57
2022-11-28T14:10:15.588Z,15.83
2022-11-28T14:12:54.719Z,17.63
2022-11-28T14:15:31.624Z,17.63
2022-11-28T14:18:54.541Z,18.17
2022-11-28T14:21:19.395Z,17.27
2022-11-28T14:23:54.075Z,19.13
2022-11-28T14:26:28.091Z,18.40
2022-11-28T14:28:57.924Z,17.20
2022-11-28T14:31:30.832Z,17.33
2022-11-28T14:34:00.907Z,17.67
2022-11-28T14:36:30.733Z,17.37
2022-11-28T14:39:12.885Z,16.90
2022-11-28T14:42:43.854Z,17.23
2022-11-28T14:45:42.863Z,16.60
2022-11-28T14:48:30.375Z,17.43
2022-11-28T14:51:01.925Z,17.10
2022-11-28T14:53:54.533Z,17.13
2022-11-28T14:56:27.720Z,17.33
2022-11-28T14:58:59.139Z,17.50
2022-11-28T15:01:42.043Z,16.73
2022-11-28T15:04:37.425Z,16.90
2022-11-28T15:07:11.667Z,16.43
2022-11-28T15:09:47.176Z,16.60
2022-11-28T15:12:22.233Z,17.30
2022-11-28T15:14:58.777Z,16.77
2022-11-28T15:17:30.887Z,16.30
2022-11-28T15:20:03.607Z,15.93
2022-11-28T15:22:33.429Z,15.93
2022-11-28T15:25:01.423Z,16.50
2022-11-28T15:27:29.519Z,15.47
2022-11-28T15:29:58.906Z,17.30
2022-11-28T15:32:30.879Z,18.10
2022-11-28T15:35:01.835Z,16.80
2022-11-28T15:37:32.021Z,16.63
2022-11-28T15:40:01.834Z,15.37
2022-11-28T15:42:32.212Z,16.03
2022-11-28T15:45:06.302Z,15.43
2022-11-28T15:47:35.905Z,15.07
2022-11-28T15:50:14.471Z,15.70
2022-11-28T15:52:53.146Z,15.83
2022-11-28T15:55:21.222Z,15.20
2022-11-28T15:57:49.169Z,16.43
2022-11-28T16:00:19.903Z,16.50
2022-11-28T16:02:49.627Z,16.57
2022-11-28T16:05:21.668Z,15.63
2022-11-28T16:07:51.825Z,16.87
2022-11-28T16:10:25.247Z,17.40
2022-11-28T16:13:00.119Z,17.57
2022-11-28T16:15:29.403Z,17.33
2022-11-28T16:17:59.747Z,15.87
2022-11-28T16:20:29.611Z,15.83
2022-11-28T16:23:02.577Z,16.40
2022-11-28T16:25:31.196Z,16.70
2022-11-28T16:27:59.788Z,16.63
2022-11-28T16:30:36.897Z,16.50
2022-11-28T16:33:35.934Z,16.77
2022-11-28T16:36:12.714Z,16.87
2022-11-28T16:38:41.100Z,17.13
2022-11-28T16:41:16.270Z,17.27
2022-11-28T16:43:47.396Z,18.90
2022-11-28T16:46:21.767Z,17.80
2022-11-28T16:48:55.466Z,17.43
2022-11-28T16:51:44.289Z,16.93
2022-11-28T16:54:31.806Z,16.23
2022-11-28T16:57:11.429Z,16.50
2022-11-28T16:59:39.369Z,16.93
2022-11-28T17:02:14.885Z,15.93
2022-11-28T17:04:44.989Z,15.70
2022-11-28T17:07:14.858Z,16.33
2022-11-28T17:09:43.225Z,16.77
2022-11-28T17:12:18.078Z,16.27
2022-11-28T17:14:46.083Z,16.93
2022-11-28T17:17:15.661Z,17.00
2022-11-28T17:19:46.214Z,16.77
2022-11-28T17:22:16.739Z,15.93
2022-11-28T17:24:44.879Z,16.30
2022-11-28T17:27:14.116Z,16.47
2022-11-28T17:29:42.472Z,15.70
2022-11-28T17:32:13.434Z,16.67
2022-11-28T17:34:42.725Z,16.40
2022-11-28T17:37:12.309Z,16.73
2022-11-28T17:40:00.215Z,18.33
2022-11-28T17:42:28.035Z,17.30
2022-11-28T17:44:55.932Z,17.67
2022-11-28T17:47:23.964Z,17.70
2022-11-28T17:49:52.259Z,16.50
2022-11-28T17:52:21.531Z,18.33
2022-11-28T17:54:49.599Z,18.03
2022-11-28T17:57:17.486Z,18.43
2022-11-28T17:59:45.640Z,16.93
2022-11-28T18:02:13.725Z,16.90
2022-11-28T18:04:41.622Z,17.63
2022-11-28T18:07:09.559Z,17.37
2022-11-28T18:09:38.934Z,16.63
2022-11-28T18:12:07.262Z,16.37
2022-11-28T18:14:39.643Z,16.40
2022-11-28T18:17:07.832Z,17.67
2022-11-28T18:19:35.847Z,17.13
2022-11-28T18:22:04.005Z,17.50
2022-11-28T18:24:34.492Z,17.33
2022-11-28T18:27:03.755Z,17.93
2022-11-28T18:29:31.666Z,15.80
2022-11-28T18:32:00.403Z,16.93
2022-11-28T18:34:28.332Z,17.50
2022-11-28T18:37:00.697Z,17.20
2022-11-28T18:39:28.639Z,18.53
2022-11-28T18:41:56.559Z,19.30
2022-11-28T18:44:25.806Z,17.80
2022-11-28T18:46:53.733Z,18.73
2022-11-28T18:49:21.795Z,18.60
2022-11-28T18:51:49.642Z,19.33
2022-11-28T18:54:21.126Z,18.70
2022-11-28T18:56:49.695Z,19.83
2022-11-28T18:59:18.852Z,18.50
2022-11-28T19:01:48.265Z,19.43
2022-11-28T19:04:16.862Z,21.07
2022-11-28T19:06:45.452Z,21.03
2022-11-28T19:09:15.653Z,19.47
2022-11-28T19:11:44.585Z,20.07
2022-11-28T19:14:16.166Z,20.77
2022-11-28T19:16:45.056Z,20.53
2022-11-28T19:19:14.273Z,21.43
2022-11-28T19:21:43.118Z,20.57
2022-11-28T19:24:13.571Z,20.03
2022-11-28T19:26:41.878Z,20.17
2022-11-28T19:29:09.753Z,20.80
2022-11-28T19:31:39.453Z,21.17
2022-11-28T19:34:08.980Z,19.77
2022-11-28T19:36:41.069Z,19.50
2022-11-28T19:39:09.520Z,18.37
2022-11-28T19:41:37.430Z,20.77
2022-11-28T19:44:05.531Z,18.10
2022-11-28T19:46:35.698Z,18.10
2022-11-28T19:49:04.385Z,18.37
2022-11-28T19:51:32.422Z,19.03
2022-11-28T19:54:03.890Z,17.10
2022-11-28T19:56:32.420Z,14.97
2022-11-28T19:59:00.727Z,16.37
2022-11-28T20:01:29.013Z,15.90
2022-11-28T20:03:58.670Z,15.50
2022-11-28T20:06:28.887Z,15.87
2022-11-28T20:08:59.575Z,15.73
2022-11-28T20:11:31.050Z,16.37
2022-11-28T20:14:00.194Z,15.20
2022-11-28T20:16:30.138Z,15.83
2022-11-28T20:19:00.256Z,15.57
2022-11-28T20:21:28.580Z,16.83
2022-11-28T20:23:59.507Z,15.57
2022-11-28T20:26:30.008Z,15.73
2022-11-28T20:28:58.457Z,14.90
2022-11-28T20:31:28.385Z,16.53
2022-11-28T20:33:56.329Z,16.13
2022-11-28T20:36:26.116Z,16.13
2022-11-28T20:38:55.696Z,17.70
2022-11-28T20:41:25.336Z,16.30
2022-11-28T20:43:54.713Z,16.07
2022-11-28T20:46:25.122Z,15.70
2022-11-28T20:48:53.061Z,16.33
2022-11-28T20:51:22.318Z,16.60
2022-11-28T20:53:50.342Z,17.40
2022-11-28T20:56:20.057Z,18.53
2022-11-28T20:58:48.363Z,17.03
2022-11-28T21:01:19.344Z,16.50
2022-11-28T21:03:47.533Z,16.83
2022-11-28T21:06:15.708Z,16.10
2022-11-28T21:08:44.003Z,16.30
2022-11-28T21:11:30.473Z,15.90
2022-11-28T21:14:02.744Z,15.60
2022-11-28T21:16:33.887Z,15.33
2022-11-28T21:19:05.224Z,15.37
2022-11-28T21:21:34.845Z,15.77
2022-11-28T21:24:04.300Z,14.80
2022-11-28T21:26:39.135Z,14.83
2022-11-28T21:29:09.855Z,12.97
2022-11-28T21:31:42.707Z,14.93
2022-11-28T21:34:14.105Z,14.70
2022-11-28T21:36:42.320Z,14.20
2022-11-28T21:39:13.611Z,14.53
2022-11-28T21:41:41.605Z,13.17
2022-11-28T21:44:09.869Z,12.83
2022-11-28T21:46:39.141Z,13.17
2022-11-28T21:49:07.025Z,13.47
2022-11-28T21:51:34.856Z,13.73
2022-11-28T21:54:02.769Z,12.27
2022-11-28T21:56:30.683Z,12.27
2022-11-28T21:58:58.531Z,13.10
2022-11-28T22:01:26.546Z,12.43
2022-11-28T22:04:01.909Z,12.90
2022-11-28T22:06:30.918Z,12.57
2022-11-28T22:08:58.936Z,11.83
2022-11-28T22:11:27.245Z,12.80
2022-11-28T22:13:55.123Z,13.98
2022-11-28T22:16:24.932Z,12.77
2022-11-28T22:18:56.367Z,13.03
2022-11-28T22:24:12.351Z,12.27
2022-11-28T22:26:40.253Z,12.87
2022-11-28T22:29:08.199Z,12.83
2022-11-28T22:31:36.477Z,13.10
2022-11-28T22:34:05.732Z,12.70
2022-11-28T22:36:34.342Z,13.20
2022-11-28T22:39:02.759Z,13.83
2022-11-28T22:41:30.871Z,13.40
2022-11-28T22:44:00.398Z,13.50
2022-11-28T22:46:28.989Z,13.43
2022-11-28T22:48:56.933Z,13.63
2022-11-28T22:51:27.849Z,14.00
2022-11-28T22:53:56.220Z,13.53
2022-11-28T22:56:24.292Z,14.50
2022-11-28T22:58:52.725Z,15.23
2022-11-28T23:01:22.749Z,15.73
2022-11-28T23:03:50.765Z,14.23
2022-11-28T23:06:21.100Z,14.43
2022-11-28T23:08:50.806Z,15.73
2022-11-28T23:11:20.875Z,16.10
2022-11-28T23:13:49.545Z,15.80
2022-11-28T23:16:19.184Z,16.20
2022-11-28T23:18:49.976Z,15.97
2022-11-28T23:21:19.760Z,16.67
2022-11-28T23:23:47.881Z,16.43
2022-11-28T23:26:18.605Z,17.10
2022-11-28T23:28:46.918Z,16.50
2022-11-28T23:31:18.386Z,17.40
2022-11-28T23:33:46.933Z,18.27
2022-11-28T23:36:16.597Z,17.37
2022-11-28T23:38:46.084Z,17.23
2022-11-28T23:41:14.495Z,17.30
2022-11-28T23:43:44.121Z,19.17
2022-11-28T23:46:13.020Z,19.87
2022-11-28T23:48:42.527Z,20.67
2022-11-28T23:51:12.745Z,21.47
2022-11-28T23:53:41.904Z,20.40
2022-11-28T23:56:12.164Z,21.77
2022-11-28T23:58:40.456Z,22.63
